< < Back
Terminal Aerodrome Forecast


Current Version              Previous Versions:   1  2  3  4  5  6  7  8  9  

Terminal Aerodrome Forecast

896
FTAK31 PAJN 300500
TAFAHN
TAF
PAHN 300538Z 3006/3106 30010KT P6SM VCSH SCT015 OVC060
     FM301000 30012KT P6SM -RA BKN025 OVC040
     FM310400 10010KT 5SM -RA BR BKN015 OVC025
      AMD LTD TO CLD VIS AND WIND=

Latest METAR

297
SAUS70 KWBC 301400 RRA
MTRAHN
METAR KAHN 301351Z 36004KT 10SM CLR 12/06 A3009 RMK AO2 SLP188
T01220061


USA.gov is the U.S. government's official web portal to all federal, state and local government web resources and services.